This is the latest recevied weather packets stored in our database for station/object KD4KKF. If no packets are shown the sender has not sent any weather packets the latest 10 day(s).
| Time | Temp. | Humidity | Pressure | Rain* | Wind** | Luminosity | Snow |
|---|---|---|---|---|---|---|---|
| 1777913774 | 23.89° C | 53% | 1015.1 hPa | 0 mm | - | 371 W/m² | - |
| 1777913471 | 24.44° C | 51% | 1014.8 hPa | 0 mm | - | 769 W/m² | - |
| 1777913167 | 24.44° C | 52% | 1015.1 hPa | 0 mm | - | 844 W/m² | - |
| 1777912864 | 24.44° C | 52% | 1015 hPa | 0 mm | - | 825 W/m² | - |
| 1777912560 | 23.89° C | 54% | 1015.3 hPa | 0 mm | - | 812 W/m² | - |
| 1777912256 | 23.89° C | 52% | 1015.5 hPa | 0 mm | - | 782 W/m² | - |
| 1777911953 | 23.33° C | 55% | 1015.3 hPa | 0 mm | - | 765 W/m² | - |
| 1777911649 | 23.33° C | 54% | 1015.6 hPa | 0 mm | - | 761 W/m² | - |
| 1777911345 | 23.33° C | 56% | 1015.5 hPa | 0 mm | - | 706 W/m² | - |
| 1777911043 | 23.89° C | 54% | 1015.8 hPa | 0 mm | - | 591 W/m² | - |
| 1777910740 | 23.33° C | 54% | 1015.9 hPa | 0 mm | - | 682 W/m² | - |
| 1777910437 | 23.33° C | 56% | 1015.8 hPa | 0 mm | - | 792 W/m² | - |
| 1777910133 | 23.33° C | 54% | 1016.1 hPa | 0 mm | - | 802 W/m² | - |
| 1777909831 | 22.78° C | 56% | 1016 hPa | 0 mm | - | 794 W/m² | - |
| 1777909527 | 22.78° C | 55% | 1015.9 hPa | 0 mm | - | 814 W/m² | - |
| 1777909225 | 22.22° C | 56% | 1016.2 hPa | 0 mm | - | 818 W/m² | - |
| 1777908923 | 22.22° C | 56% | 1016.1 hPa | 0 mm | - | 624 W/m² | - |
| 1777908621 | 22.78° C | 55% | 1016 hPa | 0 mm | - | 803 W/m² | - |
| 1777908317 | 22.22° C | 59% | 1016.1 hPa | 0 mm | - | 796 W/m² | - |
| 1777908014 | 22.22° C | 58% | 1016.5 hPa | 0 mm | - | 800 W/m² | - |
| 1777907709 | 21.67° C | 61% | 1016.2 hPa | 0 mm | - | 804 W/m² | - |
| 1777907404 | 22.22° C | 63% | 1016.2 hPa | 0 mm | - | 774 W/m² | - |
| 1777907101 | 21.67° C | 65% | 1016 hPa | 0 mm | - | 769 W/m² | - |
| 1777906799 | 21.67° C | 70% | 1016 hPa | 0 mm | - | 746 W/m² | - |
| 1777906496 | 21.67° C | 67% | 1016.5 hPa | 0 mm | - | 774 W/m² | - |
* Rain latest hour (hover to see other rain measurements)
** Current wind speed in m/s (hover to see current wind gust speed)